Time;durP1;ratioP1;P1;durP2;ratioP2;P2;SDS_P1;SDS_P2;PMS_P1;PMS_P2;Temp;Humidity;BMP_temperature;BMP_pressure;BME280_temperature;BME280_humidity;BME280_pressure;Samples;Min_cycle;Max_cycle;Signal;HPM_P1;HPM_P2
2021/01/29 00:02:22;;;;;;;23.02;8.05;;;;;;;-2.17;57.97;93182.75;5099446;27;20027;-79
2021/01/29 00:04:48;;;;;;;19.95;8.38;;;;;;;-2.18;58.13;93209.88;5129766;27;20034;-79
2021/01/29 00:07:13;;;;;;;15.02;6.78;;;;;;;-2.22;57.67;93179.06;5092941;28;20033;-78
2021/01/29 00:09:39;;;;;;;19.92;7.50;;;;;;;-2.19;57.75;93187.44;5096835;27;20054;-79
2021/01/29 00:12:06;;;;;;;17.95;7.22;;;;;;;-2.21;57.60;93198.13;5116214;27;22059;-79
2021/01/29 00:14:31;;;;;;;13.90;6.95;;;;;;;-2.17;57.22;93187.97;5115571;27;20074;-78
2021/01/29 00:16:57;;;;;;;24.48;7.70;;;;;;;-2.20;58.07;93198.91;5094233;28;20055;-80
2021/01/29 00:19:22;;;;;;;21.00;7.70;;;;;;;-2.16;57.84;93185.09;5107901;27;20015;-79
2021/01/29 00:21:48;;;;;;;15.95;6.88;;;;;;;-2.19;57.82;93190.06;5108863;27;20027;-80
2021/01/29 00:24:13;;;;;;;13.63;7.43;;;;;;;-2.23;57.96;93192.38;5093052;28;20555;-79
2021/01/29 00:26:39;;;;;;;17.50;8.52;;;;;;;-2.16;57.34;93205.97;5093027;28;20447;-79
2021/01/29 00:29:05;;;;;;;15.80;6.97;;;;;;;-2.15;56.95;93180.69;5094853;27;20039;-79
2021/01/29 00:31:30;;;;;;;19.98;7.85;;;;;;;-2.15;57.60;93191.13;5113363;27;20057;-80
2021/01/29 00:33:55;;;;;;;19.92;7.72;;;;;;;-2.17;57.49;93206.25;5093363;28;20026;-78
2021/01/29 00:36:21;;;;;;;17.58;7.60;;;;;;;-2.22;57.81;93212.19;5108595;27;20587;-79
2021/01/29 00:38:46;;;;;;;16.17;7.53;;;;;;;-2.22;58.11;93212.19;5100445;28;20411;-80
2021/01/29 00:41:12;;;;;;;19.00;7.78;;;;;;;-2.20;58.03;93199.69;5103770;27;20038;-79
2021/01/29 00:43:39;;;;;;;17.83;8.60;;;;;;;-2.18;57.66;93207.28;5092258;28;20092;-78
2021/01/29 00:46:05;;;;;;;15.57;7.38;;;;;;;-2.17;57.97;93208.88;5093429;28;20028;-79
2021/01/29 00:48:31;;;;;;;17.58;7.88;;;;;;;-2.22;58.06;93199.97;5092356;28;20057;-78
2021/01/29 00:50:56;;;;;;;28.83;9.45;;;;;;;-2.23;58.23;93205.41;5110861;28;20398;-78
2021/01/29 00:53:22;;;;;;;19.20;8.55;;;;;;;-2.19;57.98;93206.50;5100694;27;20046;-79
2021/01/29 00:55:47;;;;;;;17.25;8.13;;;;;;;-2.20;58.46;93191.84;5093567;28;20059;-79
2021/01/29 00:58:12;;;;;;;25.00;8.98;;;;;;;-2.16;57.90;93202.59;5099218;27;20043;-78
2021/01/29 01:00:38;;;;;;;22.60;7.47;;;;;;;-2.15;57.12;93212.00;5109795;28;20023;-79
2021/01/29 01:03:03;;;;;;;18.85;8.95;;;;;;;-2.16;57.67;93197.38;5101256;27;20035;-79
2021/01/29 01:05:29;;;;;;;22.35;8.10;;;;;;;-2.18;57.72;93200.22;5099865;27;20435;-79
2021/01/29 01:07:54;;;;;;;20.58;8.40;;;;;;;-2.22;57.78;93226.06;5110615;28;20033;-79
2021/01/29 01:10:21;;;;;;;21.88;8.38;;;;;;;-2.18;58.04;93196.84;5099899;28;20023;-79
2021/01/29 01:12:47;;;;;;;22.48;9.45;;;;;;;-2.27;57.33;93194.69;5104999;28;20044;-79
2021/01/29 01:15:14;;;;;;;28.65;9.55;;;;;;;-2.25;58.56;93203.06;5123930;28;20031;-79
2021/01/29 01:17:40;;;;;;;20.63;9.52;;;;;;;-2.22;59.05;93202.56;5096389;28;20417;-79
2021/01/29 01:20:08;;;;;;;16.85;8.27;;;;;;;-2.14;58.91;93197.91;5117328;27;20067;-79
2021/01/29 01:22:33;;;;;;;16.80;8.50;;;;;;;-2.05;58.75;93183.38;5101598;28;20030;-79
2021/01/29 01:24:59;;;;;;;15.30;8.48;;;;;;;-2.00;59.21;93175.53;5129933;27;20023;-79
2021/01/29 01:27:24;;;;;;;21.08;8.50;;;;;;;-2.00;58.68;93169.53;5107771;28;20024;-79
2021/01/29 01:29:49;;;;;;;22.98;8.05;;;;;;;-1.95;59.28;93164.38;5109560;28;20030;-79
2021/01/29 01:32:15;;;;;;;16.08;7.82;;;;;;;-1.90;58.97;93139.03;5098118;28;20034;-79
2021/01/29 01:34:40;;;;;;;20.83;9.18;;;;;;;-1.89;58.86;93148.47;5110919;28;20032;-78
2021/01/29 01:37:06;;;;;;;22.83;9.45;;;;;;;-1.87;58.60;93146.38;5112815;28;20024;-79
2021/01/29 01:39:32;;;;;;;17.05;8.07;;;;;;;-1.84;58.83;93135.41;5131264;27;20035;-79
2021/01/29 01:41:58;;;;;;;18.73;8.05;;;;;;;-1.79;58.92;93139.09;5107013;28;20106;-79
2021/01/29 01:44:31;;;;;;;16.05;7.55;;;;;;;-1.72;57.96;93137.06;5108662;28;20398;-79
2021/01/29 01:47:02;;;;;;;14.90;8.52;;;;;;;-1.68;58.57;93138.13;5118779;27;20042;-79
2021/01/29 01:49:28;;;;;;;16.52;7.70;;;;;;;-1.71;57.42;93123.75;5099843;28;20550;-79
2021/01/29 01:52:08;;;;;;;16.52;7.88;;;;;;;-1.67;58.09;93137.88;5109195;28;20106;-79
2021/01/29 01:54:42;;;;;;;14.75;7.15;;;;;;;-1.63;57.62;93140.72;5110542;27;20042;-79
2021/01/29 01:57:07;;;;;;;17.35;6.53;;;;;;;-1.63;58.05;93114.59;5115317;27;20106;-80
2021/01/29 01:59:46;;;;;;;18.17;6.43;;;;;;;-1.62;58.17;93142.31;5095229;28;20064;-79
2021/01/29 02:02:15;;;;;;;17.73;6.30;;;;;;;-1.55;57.45;93126.41;5107397;27;20051;-79
2021/01/29 02:04:43;;;;;;;17.35;7.50;;;;;;;-1.54;58.14;93113.09;5107252;28;20471;-79
2021/01/29 02:07:09;;;;;;;16.67;7.10;;;;;;;-1.52;57.65;93142.38;5094848;28;20406;-79
2021/01/29 02:09:39;;;;;;;17.48;7.43;;;;;;;-1.48;57.63;93126.97;5113189;27;20023;-79
2021/01/29 02:12:06;;;;;;;17.02;7.35;;;;;;;-1.45;58.00;93127.22;5103227;27;20023;-79
2021/01/29 02:14:31;;;;;;;12.30;6.43;;;;;;;-1.43;57.57;93140.81;5090473;28;20426;-79
2021/01/29 02:17:23;;;;;;;15.02;6.82;;;;;;;-1.36;57.30;93129.34;5094906;28;20027;-79
2021/01/29 02:20:04;;;;;;;15.82;7.68;;;;;;;-1.39;57.70;93109.72;5115522;27;20031;-79
2021/01/29 02:22:47;;;;;;;15.82;7.60;;;;;;;-1.44;56.81;93123.56;5126296;27;20035;-80
2021/01/29 02:25:37;;;;;;;14.88;6.10;;;;;;;-1.43;57.16;93119.91;5094958;27;20023;-79
2021/01/29 02:28:14;;;;;;;17.92;6.88;;;;;;;-1.44;58.09;93107.88;5114914;27;20027;-79
2021/01/29 02:31:06;;;;;;;15.20;7.32;;;;;;;-1.41;58.00;93114.44;5110964;28;20106;-79
2021/01/29 02:33:58;;;;;;;15.77;6.07;;;;;;;-1.36;57.06;93121.50;5098836;28;20020;-79
2021/01/29 02:36:54;;;;;;;18.52;6.90;;;;;;;-1.38;56.63;93127.00;5071495;27;20482;-79
2021/01/29 02:39:45;;;;;;;13.23;6.25;;;;;;;-1.37;57.01;93104.25;5097718;27;20027;-79
2021/01/29 02:42:14;;;;;;;16.55;5.78;;;;;;;-1.45;57.84;93095.84;5112247;27;20071;-80
2021/01/29 02:45:03;;;;;;;16.95;7.30;;;;;;;-1.42;57.51;93111.03;5103540;27;20502;-80
2021/01/29 02:47:35;;;;;;;20.10;7.03;;;;;;;-1.34;56.89;93093.25;5119921;27;20031;-80
2021/01/29 02:50:38;;;;;;;13.60;6.75;;;;;;;-1.37;57.96;93088.56;5125687;27;20063;-79
2021/01/29 02:53:28;;;;;;;13.38;6.88;;;;;;;-1.39;57.43;93109.72;5130398;27;20038;-79
2021/01/29 02:56:16;;;;;;;17.23;7.65;;;;;;;-1.43;57.42;93101.59;5114245;27;20114;-79
2021/01/29 02:58:51;;;;;;;17.95;6.68;;;;;;;-1.45;58.47;93095.84;5121588;27;20382;-79
2021/01/29 03:01:32;;;;;;;16.05;6.78;;;;;;;-1.40;57.59;93082.03;5094129;28;20028;-80
2021/01/29 03:04:05;;;;;;;14.75;7.13;;;;;;;-1.37;57.30;93085.94;5091119;28;20026;-79
2021/01/29 03:06:43;;;;;;;16.40;6.50;;;;;;;-1.50;57.90;93079.38;5093687;28;20023;-80
2021/01/29 03:09:32;;;;;;;16.77;6.80;;;;;;;-1.44;58.70;93079.13;5093999;28;20035;-80
2021/01/29 03:12:08;;;;;;;16.05;7.10;;;;;;;-1.41;57.11;93068.16;5092878;27;20123;-80
2021/01/29 03:14:45;;;;;;;17.75;7.65;;;;;;;-1.44;57.99;93068.69;5121515;27;20046;-80
2021/01/29 03:17:54;;;;;;;12.93;6.15;;;;;;;-1.45;58.65;93079.38;5099714;27;20078;-80
2021/01/29 03:20:30;;;;;;;22.23;6.72;;;;;;;-1.44;58.11;93084.38;5092514;28;20058;-80
2021/01/29 03:23:04;;;;;;;12.55;6.10;;;;;;;-1.39;57.34;93088.03;5093579;28;20399;-79
2021/01/29 03:25:33;;;;;;;16.90;6.95;;;;;;;-1.38;57.68;93081.75;5102595;27;20108;-79
2021/01/29 03:28:06;;;;;;;18.70;7.75;;;;;;;-1.34;56.56;93085.41;5124500;27;20023;-79
2021/01/29 03:30:36;;;;;;;11.32;6.53;;;;;;;-1.33;57.05;93079.16;5101841;28;20486;-79
2021/01/29 03:33:02;;;;;;;19.40;7.38;;;;;;;-1.35;57.51;93076.03;5123003;27;20098;-79
2021/01/29 03:35:36;;;;;;;16.52;7.90;;;;;;;-1.31;56.89;93053.53;5126174;27;20016;-79
2021/01/29 03:38:17;;;;;;;12.38;6.13;;;;;;;-1.33;57.74;93047.78;5104088;27;20026;-79
2021/01/29 03:40:48;;;;;;;16.52;7.10;;;;;;;-1.30;56.37;93042.06;5100765;28;20063;-79
2021/01/29 03:43:20;;;;;;;14.90;6.50;;;;;;;-1.27;56.55;93055.38;5105211;27;20025;-79
2021/01/29 03:46:01;;;;;;;17.67;6.47;;;;;;;-1.31;56.03;93053.53;5099622;27;20564;-79
2021/01/29 03:48:41;;;;;;;15.75;6.95;;;;;;;-1.29;56.54;93059.31;5130577;27;20031;-80
2021/01/29 03:51:14;;;;;;;19.52;6.93;;;;;;;-1.27;57.29;93054.59;5097341;28;20059;-79
2021/01/29 03:53:54;;;;;;;21.17;6.85;;;;;;;-1.25;57.86;93062.97;5106942;27;20131;-79
2021/01/29 03:56:28;;;;;;;16.83;7.45;;;;;;;-1.26;57.75;93071.88;5123067;27;20023;-79
2021/01/29 03:59:18;;;;;;;16.40;8.77;;;;;;;-1.29;57.73;93060.06;5124252;27;20076;-79
2021/01/29 04:01:59;;;;;;;16.67;7.88;;;;;;;-1.21;57.92;93079.72;5125363;27;20098;-79
2021/01/29 04:04:33;;;;;;;17.95;6.95;;;;;;;-1.17;57.77;93072.91;5099243;28;20072;-79
2021/01/29 04:07:23;;;;;;;19.38;7.65;;;;;;;-1.17;58.15;93065.06;5117655;27;20142;-79
2021/01/29 04:09:54;;;;;;;12.98;8.25;;;;;;;-1.17;58.47;93067.69;5101067;28;20062;-79
2021/01/29 04:12:50;;;;;;;14.32;7.32;;;;;;;-1.14;58.29;93063.75;5110461;27;20029;-79
2021/01/29 04:15:28;;;;;;;12.90;6.75;;;;;;;-1.14;58.08;93067.19;5113887;27;20027;-80
2021/01/29 04:18:25;;;;;;;17.80;7.63;;;;;;;-1.11;58.65;93071.88;5118498;27;20552;-80
2021/01/29 04:21:20;;;;;;;17.77;7.30;;;;;;;-1.07;58.81;93053.84;5075685;28;20053;-80
2021/01/29 04:23:45;;;;;;;16.45;6.28;;;;;;;-1.05;58.25;93067.44;5086528;27;20526;-80
2021/01/29 04:26:19;;;;;;;16.45;7.63;;;;;;;-1.05;59.16;93062.22;5132981;27;20030;-79
2021/01/29 04:28:49;;;;;;;15.65;6.88;;;;;;;-0.99;57.96;93065.63;5106597;27;20055;-80
2021/01/29 04:31:19;;;;;;;17.20;8.02;;;;;;;-0.99;58.54;93055.16;5109069;27;20074;-79
2021/01/29 04:33:49;;;;;;;17.10;7.95;;;;;;;-0.99;57.96;93071.63;5102735;28;20076;-80
2021/01/29 04:36:18;;;;;;;14.98;7.88;;;;;;;-1.03;58.38;93053.06;5113944;27;20031;-79
2021/01/29 04:38:52;;;;;;;17.85;7.43;;;;;;;-1.06;58.83;93069.28;5097567;28;20358;-80
2021/01/29 04:41:33;;;;;;;22.55;8.40;;;;;;;-1.01;58.33;93024.81;5126636;27;20103;-79
2021/01/29 04:43:58;;;;;;;16.17;8.17;;;;;;;-0.98;58.19;93056.72;5127885;27;20027;-80
2021/01/29 04:46:48;;;;;;;15.48;7.25;;;;;;;-0.98;58.28;93085.50;5101583;28;20046;-80
2021/01/29 04:49:57;;;;;;;18.23;7.45;;;;;;;-1.02;57.91;93072.94;5092974;28;20027;-79
2021/01/29 04:52:25;;;;;;;14.60;7.68;;;;;;;-1.02;58.17;93083.41;5033815;27;20048;-79
2021/01/29 04:54:50;;;;;;;16.23;7.43;;;;;;;-1.02;57.79;93078.19;5110322;27;20055;-79
2021/01/29 04:57:37;;;;;;;16.60;7.45;;;;;;;-0.98;58.47;93090.72;5106250;27;20063;-79
2021/01/29 05:00:24;;;;;;;18.77;7.82;;;;;;;-0.99;58.29;93084.72;5132636;27;20023;-80
2021/01/29 05:03:08;;;;;;;13.32;6.85;;;;;;;-1.00;58.52;93064.81;5101616;27;20034;-80
2021/01/29 05:05:56;;;;;;;17.70;6.53;;;;;;;-0.98;58.42;93059.34;5102645;28;20087;-79
2021/01/29 05:08:31;;;;;;;22.10;7.28;;;;;;;-0.97;58.38;93045.22;5112048;28;20035;-79
2021/01/29 05:11:22;;;;;;;13.55;6.82;;;;;;;-1.02;58.40;93067.72;5130632;27;20114;-79
2021/01/29 05:14:19;;;;;;;15.30;6.53;;;;;;;-1.04;58.01;93046.28;5088379;28;20498;-79
2021/01/29 05:17:48;;;;;;;14.88;6.35;;;;;;;-1.09;58.46;93048.88;5106328;28;20028;-80
2021/01/29 05:20:44;;;;;;;15.30;6.82;;;;;;;-1.10;57.62;93055.16;5013601;28;20034;-79
2021/01/29 05:23:19;;;;;;;23.63;6.05;;;;;;;-1.14;58.37;93048.88;5103665;28;20035;-79
2021/01/29 05:25:50;;;;;;;11.40;5.63;;;;;;;-1.09;58.11;93076.84;5095454;28;20103;-79
2021/01/29 05:28:41;;;;;;;15.52;7.18;;;;;;;-1.08;58.17;93078.41;5094125;28;20027;-79
2021/01/29 05:31:25;;;;;;;12.02;6.07;;;;;;;-1.12;58.84;93082.59;5119330;27;20031;-79
2021/01/29 05:34:17;;;;;;;10.57;5.70;;;;;;;-1.09;58.98;93087.31;5113271;28;20130;-78
2021/01/29 05:36:43;;;;;;;9.60;4.57;;;;;;;-1.12;58.53;93104.31;5109226;28;20024;-79
2021/01/29 05:39:44;;;;;;;16.35;6.28;;;;;;;-1.08;59.40;93102.75;5110590;27;20046;-78
2021/01/29 05:42:21;;;;;;;11.85;6.05;;;;;;;-1.07;59.82;93082.63;5109374;27;20027;-79
2021/01/29 05:44:49;;;;;;;14.77;6.70;;;;;;;-1.05;59.79;93102.22;5124001;27;20031;-80
2021/01/29 05:47:47;;;;;;;13.43;6.53;;;;;;;-0.99;59.37;93089.16;5115010;28;20038;-78
2021/01/29 05:50:26;;;;;;;13.30;6.38;;;;;;;-1.03;60.49;93081.06;5099088;28;20084;-79
2021/01/29 05:53:04;;;;;;;13.13;6.57;;;;;;;-1.02;61.10;93080.81;5126618;27;20040;-79
2021/01/29 05:55:49;;;;;;;10.05;5.47;;;;;;;-1.05;60.74;93089.16;5116720;27;20034;-79
2021/01/29 05:58:39;;;;;;;12.10;6.28;;;;;;;-0.94;60.36;93099.63;5133711;27;20027;-79
2021/01/29 06:01:32;;;;;;;11.55;6.35;;;;;;;-0.90;60.90;93101.47;5100640;28;20050;-79
2021/01/29 06:04:18;;;;;;;18.50;6.65;;;;;;;-0.87;60.73;93121.09;5114936;27;20023;-79
2021/01/29 06:07:31;;;;;;;13.07;6.10;;;;;;;-0.86;61.30;93133.91;5115149;27;20104;-78
2021/01/29 06:10:05;;;;;;;14.90;7.38;;;;;;;-0.79;61.65;93127.63;5007970;28;20444;-81
2021/01/29 06:12:43;;;;;;;17.30;8.65;;;;;;;-0.75;61.07;93097.28;5108014;27;20039;-80
2021/01/29 06:15:33;;;;;;;11.45;6.53;;;;;;;-0.76;61.28;93103.56;5101546;28;20024;-76
2021/01/29 06:18:33;;;;;;;15.43;7.22;;;;;;;-0.70;59.91;93120.84;5097228;27;20028;-76
2021/01/29 06:21:39;;;;;;;15.07;7.55;;;;;;;-0.71;60.63;93104.38;5034563;28;20037;-77
2021/01/29 06:24:27;;;;;;;16.80;7.90;;;;;;;-0.69;61.35;93075.28;5097807;28;20032;-74
2021/01/29 06:27:06;;;;;;;14.98;8.30;;;;;;;-0.58;61.70;93081.34;5083036;27;20046;-73
2021/01/29 06:30:01;;;;;;;20.10;8.25;;;;;;;-0.56;61.37;93094.94;5099543;28;20038;-75
2021/01/29 06:32:55;;;;;;;15.13;6.03;;;;;;;-0.46;60.89;93136.84;5101667;27;20030;-77
2021/01/29 06:35:24;;;;;;;15.43;7.60;;;;;;;-0.42;61.22;93095.97;5108006;28;20023;-76
2021/01/29 06:38:18;;;;;;;12.90;6.22;;;;;;;-0.34;60.56;93134.72;5120058;27;20414;-75
2021/01/29 06:41:20;;;;;;;15.23;7.13;;;;;;;-0.28;60.62;93093.63;5111779;27;20019;-76
2021/01/29 06:43:52;;;;;;;12.45;6.53;;;;;;;-0.24;59.51;93124.25;5125179;27;20036;-75
2021/01/29 06:46:58;;;;;;;15.52;7.80;;;;;;;-0.36;61.13;93122.97;5104462;27;20019;-77
2021/01/29 06:49:46;;;;;;;18.58;8.10;;;;;;;-0.19;61.07;93130.53;5108365;28;20114;-77
2021/01/29 06:52:39;;;;;;;18.58;8.10;;;;;;;-0.08;60.75;93124.22;5123048;27;20103;-77
2021/01/29 06:55:10;;;;;;;16.33;8.27;;;;;;;-0.03;60.24;93125.00;5123902;27;20168;-74
2021/01/29 06:58:15;;;;;;;17.25;9.40;;;;;;;0.10;59.65;93138.59;5110665;27;20094;-74
2021/01/29 07:01:27;;;;;;;18.23;8.88;;;;;;;0.21;59.48;93115.78;5088582;28;20031;-74
2021/01/29 07:04:23;;;;;;;16.65;8.15;;;;;;;0.10;59.08;93149.88;5104501;28;20114;-76
2021/01/29 07:07:01;;;;;;;17.98;8.43;;;;;;;0.13;59.18;93123.13;5102292;27;20084;-75
2021/01/29 07:09:44;;;;;;;22.52;9.02;;;;;;;0.25;59.32;93148.28;5117198;27;20060;-74
2021/01/29 07:12:28;;;;;;;13.52;7.50;;;;;;;0.33;58.53;93158.22;5106016;27;20023;-74
2021/01/29 07:15:01;;;;;;;28.08;8.25;;;;;;;0.39;58.27;93144.06;5095205;27;20489;-75
2021/01/29 07:17:51;;;;;;;19.65;8.57;;;;;;;0.43;59.02;93168.69;5105557;27;20020;-75
2021/01/29 07:20:38;;;;;;;19.48;8.80;;;;;;;0.47;59.23;93125.16;5103664;28;20032;-75
2021/01/29 07:23:19;;;;;;;14.30;7.78;;;;;;;0.54;58.58;93094.16;5116695;27;20379;-75
2021/01/29 07:26:10;;;;;;;15.80;7.63;;;;;;;0.59;57.68;93148.41;5106621;28;20028;-75
2021/01/29 07:28:47;;;;;;;21.50;8.52;;;;;;;0.52;57.46;93155.81;5112517;27;20022;-75
2021/01/29 07:31:33;;;;;;;15.45;8.05;;;;;;;0.62;58.66;93123.50;5102315;27;20408;-75
2021/01/29 07:34:34;;;;;;;16.33;6.95;;;;;;;0.69;58.45;93152.84;5109735;27;20044;-75
2021/01/29 07:37:09;;;;;;;18.35;7.82;;;;;;;0.80;58.12;93141.28;5108655;27;20039;-74
2021/01/29 07:40:10;;;;;;;20.25;8.23;;;;;;;0.89;57.64;93154.59;5111698;27;20034;-74
2021/01/29 07:42:41;;;;;;;16.25;7.97;;;;;;;0.88;57.95;93150.44;5087871;27;20046;-74
2021/01/29 07:45:37;;;;;;;18.73;8.50;;;;;;;1.06;57.39;93154.25;5121473;27;20051;-74
2021/01/29 07:48:16;;;;;;;17.67;7.80;;;;;;;1.14;56.72;93130.06;5128441;27;20118;-74
2021/01/29 07:50:46;;;;;;;15.65;8.15;;;;;;;1.24;57.28;93123.97;5101321;27;20419;-75
2021/01/29 07:53:36;;;;;;;15.00;6.60;;;;;;;1.29;56.61;93140.47;5117751;27;20103;-76
2021/01/29 07:56:38;;;;;;;18.30;8.30;;;;;;;1.51;56.85;93149.78;5108266;28;20074;-75
2021/01/29 07:59:22;;;;;;;13.93;7.70;;;;;;;1.62;57.23;93130.25;5114241;27;20034;-77
2021/01/29 08:02:24;;;;;;;25.58;9.27;;;;;;;1.79;56.81;93119.34;5101287;27;20110;-75
2021/01/29 08:05:30;;;;;;;19.67;8.95;;;;;;;1.92;57.22;93131.84;5103201;27;20032;-76
2021/01/29 08:08:25;;;;;;;23.10;9.18;;;;;;;2.00;56.62;93125.22;5098345;27;20034;-77
2021/01/29 08:10:54;;;;;;;19.25;8.60;;;;;;;2.17;56.15;93122.94;5092081;28;20047;-76
2021/01/29 08:13:32;;;;;;;19.05;8.60;;;;;;;2.30;55.77;93123.34;5118106;27;20498;-76
2021/01/29 08:16:29;;;;;;;20.98;8.43;;;;;;;2.34;55.95;93134.88;5122517;27;20020;-77
2021/01/29 08:19:13;;;;;;;21.42;8.10;;;;;;;2.34;55.90;93124.34;5076765;27;20030;-76
2021/01/29 08:22:12;;;;;;;17.40;8.40;;;;;;;2.32;55.54;93140.44;5098266;28;20016;-76
2021/01/29 08:24:49;;;;;;;26.33;9.02;;;;;;;2.35;56.12;93160.13;5097987;28;20156;-76
2021/01/29 08:27:39;;;;;;;20.00;8.15;;;;;;;2.47;54.81;93157.88;5124755;27;20034;-76
2021/01/29 08:30:23;;;;;;;14.15;7.65;;;;;;;2.57;55.72;93155.16;5104107;27;20049;-76
2021/01/29 08:33:40;;;;;;;20.90;8.52;;;;;;;2.69;55.24;93188.19;5101364;27;20509;-76
2021/01/29 08:36:34;;;;;;;16.75;8.23;;;;;;;2.69;54.85;93154.75;5062264;27;20036;-76
2021/01/29 08:39:18;;;;;;;17.50;9.02;;;;;;;2.75;55.01;93145.75;5099131;28;20027;-76
2021/01/29 08:41:55;;;;;;;16.77;7.75;;;;;;;2.89;55.47;93174.00;5126163;27;20108;-76
2021/01/29 08:44:48;;;;;;;14.55;8.27;;;;;;;2.99;55.29;93158.88;5104855;28;20032;-76
2021/01/29 08:47:54;;;;;;;15.85;8.05;;;;;;;3.12;54.82;93185.56;5131473;27;20113;-74
2021/01/29 08:50:55;;;;;;;19.15;8.13;;;;;;;3.17;54.60;93180.22;5127584;27;20016;-74
2021/01/29 08:53:49;;;;;;;14.30;7.28;;;;;;;3.18;53.68;93158.88;5111500;28;20027;-73
2021/01/29 08:56:33;;;;;;;14.05;6.57;;;;;;;3.19;54.06;93178.09;5130447;27;20030;-74
2021/01/29 08:59:03;;;;;;;14.95;6.32;;;;;;;3.22;53.41;93169.66;5132235;27;20111;-73
2021/01/29 09:01:36;;;;;;;12.80;5.85;;;;;;;3.23;54.42;93168.56;5106377;28;20465;-73
2021/01/29 09:04:09;;;;;;;11.82;5.78;;;;;;;3.33;53.92;93171.06;5113396;27;20407;-74
2021/01/29 09:06:40;;;;;;;12.65;6.75;;;;;;;3.41;53.46;93154.63;5113403;27;20023;-73
2021/01/29 09:09:14;;;;;;;14.18;6.47;;;;;;;3.49;53.82;93165.59;5113429;28;20087;-73
2021/01/29 09:11:49;;;;;;;10.63;5.35;;;;;;;3.53;53.55;93169.22;5131675;28;20051;-72
2021/01/29 09:14:23;;;;;;;12.40;5.68;;;;;;;3.62;53.94;93180.69;5131745;28;20054;-73
2021/01/29 09:20:02;;;;;;;12.38;6.22;;;;;;;3.67;53.16;93170.06;5131933;28;20030;-73
2021/01/29 09:22:36;;;;;;;13.07;6.53;;;;;;;3.68;52.97;93144.50;5113362;28;20426;-73
2021/01/29 09:25:36;;;;;;;16.80;7.47;;;;;;;3.75;52.81;93160.75;5113340;28;20015;-72
2021/01/29 09:28:16;;;;;;;14.13;7.20;;;;;;;3.74;52.33;93162.56;5098345;28;20035;-73
2021/01/29 09:30:56;;;;;;;10.57;6.13;;;;;;;3.72;53.93;93133.09;5096618;28;20027;-73
2021/01/29 09:33:27;;;;;;;15.50;7.43;;;;;;;3.74;53.59;93144.13;5109745;28;20495;-73
2021/01/29 09:35:58;;;;;;;15.60;7.63;;;;;;;3.76;53.60;93136.72;5111013;28;20063;-73
2021/01/29 09:38:28;;;;;;;20.48;8.88;;;;;;;3.84;53.20;93151.09;5111322;28;20110;-73
2021/01/29 09:41:17;;;;;;;19.17;9.15;;;;;;;3.82;53.58;93132.91;5110907;28;20027;-73
2021/01/29 09:44:13;;;;;;;15.75;8.40;;;;;;;3.89;54.27;93140.47;5110421;28;20035;-74
2021/01/29 09:46:42;;;;;;;21.80;9.50;;;;;;;3.89;53.47;93123.84;5092742;28;20035;-75
2021/01/29 09:49:27;;;;;;;20.30;9.80;;;;;;;3.93;54.09;93135.38;5110894;28;20020;-74
2021/01/29 09:52:17;;;;;;;19.65;9.52;;;;;;;3.81;53.84;93123.47;5110847;28;20035;-73
2021/01/29 09:55:10;;;;;;;18.98;9.18;;;;;;;3.71;53.74;93121.00;5111327;28;20056;-73
2021/01/29 09:58:07;;;;;;;22.63;9.10;;;;;;;3.76;54.11;93136.72;5111179;28;20024;-73
2021/01/29 10:00:35;;;;;;;21.98;9.27;;;;;;;3.82;54.63;93119.75;5086449;28;20031;-75
2021/01/29 10:03:10;;;;;;;25.55;9.82;;;;;;;3.92;53.71;93133.84;5111348;28;20023;-74
2021/01/29 10:05:39;;;;;;;21.70;9.43;;;;;;;3.95;54.15;93117.47;5110998;28;20513;-74
2021/01/29 10:08:11;;;;;;;24.45;10.77;;;;;;;4.04;53.53;93105.16;5111845;28;20024;-74
2021/01/29 10:10:48;;;;;;;29.95;10.77;;;;;;;4.15;53.46;93113.66;5092750;28;20184;-73
2021/01/29 10:13:44;;;;;;;23.55;10.35;;;;;;;4.10;53.44;93122.47;5094572;28;20047;-78
2021/01/29 10:16:37;;;;;;;21.83;10.73;;;;;;;4.18;54.36;93105.97;5115980;28;20032;-77
2021/01/29 10:19:08;;;;;;;21.60;10.73;;;;;;;4.01;54.71;93127.63;5114711;28;20040;-74
2021/01/29 10:21:58;;;;;;;20.07;10.57;;;;;;;3.96;53.94;93143.50;5114786;28;20047;-76
2021/01/29 10:24:33;;;;;;;24.25;11.15;;;;;;;4.07;54.17;93101.97;5098187;28;20150;-76
2021/01/29 10:27:09;;;;;;;20.40;10.10;;;;;;;4.20;53.43;93114.38;5115372;28;20411;-76
2021/01/29 10:29:38;;;;;;;28.40;12.18;;;;;;;4.28;52.75;93114.78;5096481;28;20027;-75
2021/01/29 10:32:10;;;;;;;38.70;12.95;;;;;;;4.37;53.20;93103.25;5114194;28;20026;-75
2021/01/29 10:34:56;;;;;;;28.85;12.75;;;;;;;4.29;51.88;93125.03;5114525;28;20102;-74
2021/01/29 10:37:36;;;;;;;35.88;13.65;;;;;;;4.32;52.70;93108.63;5095583;28;20035;-75
2021/01/29 10:40:25;;;;;;;22.80;11.50;;;;;;;4.35;53.24;93120.44;5115588;28;20494;-78
2021/01/29 10:43:19;;;;;;;26.75;12.30;;;;;;;4.39;53.98;93093.16;5099414;28;20534;-76
2021/01/29 10:46:23;;;;;;;26.27;12.70;;;;;;;4.55;53.80;93098.19;5109917;28;20042;-75
2021/01/29 10:49:16;;;;;;;28.10;13.55;;;;;;;4.68;54.03;93112.44;5114443;28;20091;-75
2021/01/29 10:51:54;;;;;;;29.48;12.82;;;;;;;4.83;53.51;93109.50;5095631;28;20076;-74
2021/01/29 10:54:23;;;;;;;24.17;12.32;;;;;;;4.93;53.37;93090.81;5113807;28;20450;-75
2021/01/29 10:57:14;;;;;;;27.27;13.15;;;;;;;5.03;53.04;93080.03;5113847;28;20080;-74
2021/01/29 10:59:55;;;;;;;30.85;13.77;;;;;;;5.14;52.47;93082.44;5100912;28;20530;-75
2021/01/29 11:02:32;;;;;;;52.95;25.30;;;;;;;5.34;51.67;93081.22;5113530;28;20027;-75
2021/01/29 11:05:06;;;;;;;45.60;21.73;;;;;;;5.52;51.84;93071.56;5095162;28;20398;-76
2021/01/29 11:07:35;;;;;;;43.55;19.65;;;;;;;5.72;51.18;93070.28;5130454;27;20058;-74
2021/01/29 11:10:07;;;;;;;36.92;14.65;;;;;;;5.85;50.74;93045.66;5122723;27;20547;-74
2021/01/29 11:12:39;;;;;;;27.70;12.37;;;;;;;5.87;50.74;93055.94;5115277;27;20086;-74
2021/01/29 11:18:37;;;;;;;40.45;13.93;;;;;;;6.18;49.59;93056.72;5134416;27;20069;-74
2021/01/29 11:21:46;;;;;;;27.45;13.45;;;;;;;6.28;49.96;93046.97;5134032;27;20558;-73
2021/01/29 11:24:32;;;;;;;32.30;14.20;;;;;;;6.33;49.33;93041.53;5030745;28;20484;-72
2021/01/29 11:27:10;;;;;;;28.05;13.52;;;;;;;6.45;50.16;93043.59;5132453;27;20038;-73
2021/01/29 11:33:01;;;;;;;27.83;13.75;;;;;;;6.69;48.97;93019.38;5134152;27;20046;-74
2021/01/29 11:35:59;;;;;;;26.55;12.45;;;;;;;6.85;49.21;93009.88;5133293;27;20023;-73
2021/01/29 11:42:02;;;;;;;26.08;12.52;;;;;;;7.15;47.93;93007.44;5133921;27;20082;-73
2021/01/29 11:44:53;;;;;;;25.05;12.38;;;;;;;7.22;47.71;93002.44;5115969;27;20031;-73
2021/01/29 11:47:48;;;;;;;27.52;13.98;;;;;;;7.43;46.85;92976.84;5117379;27;20023;-73
2021/01/29 11:50:30;;;;;;;29.20;14.73;;;;;;;7.56;46.95;92971.69;5099402;27;20035;-73
2021/01/29 11:53:25;;;;;;;30.17;14.63;;;;;;;7.62;46.63;92981.03;5114821;27;20114;-72
2021/01/29 11:56:01;;;;;;;30.92;13.77;;;;;;;7.67;45.74;92951.66;5114191;27;20037;-73
2021/01/29 11:58:39;;;;;;;36.75;13.35;;;;;;;7.68;46.64;92949.81;5132879;27;20045;-73
2021/01/29 12:01:30;;;;;;;29.92;12.95;;;;;;;7.66;47.01;92938.75;5114475;27;20019;-74
2021/01/29 12:04:21;;;;;;;21.67;12.70;;;;;;;7.67;47.32;92927.03;5114515;27;20068;-74
2021/01/29 12:07:00;;;;;;;24.05;11.60;;;;;;;7.61;47.35;92929.06;5132904;27;20023;-73
2021/01/29 12:09:50;;;;;;;27.42;12.13;;;;;;;7.55;47.55;92930.31;5114661;27;20023;-73
2021/01/29 12:12:28;;;;;;;23.60;10.52;;;;;;;7.59;47.37;92940.00;5121883;27;20069;-73
2021/01/29 12:14:56;;;;;;;25.40;14.00;;;;;;;7.60;47.27;92922.22;5112122;28;20050;-73
2021/01/29 12:17:29;;;;;;;33.95;16.33;;;;;;;7.58;47.40;92919.09;5093456;28;20031;-73
2021/01/29 12:20:06;;;;;;;33.50;13.45;;;;;;;7.55;46.19;92904.63;5111917;28;20114;-73
2021/01/29 12:22:44;;;;;;;25.30;12.00;;;;;;;7.58;47.59;92900.53;5124534;27;20102;-71
2021/01/29 12:25:37;;;;;;;29.67;13.93;;;;;;;7.59;46.64;92915.34;5114341;27;20039;-74
2021/01/29 12:28:21;;;;;;;;;;;;;;;7.54;46.89;92904.91;5125645;27;20528;-73
2021/01/29 12:30:51;;;;;;;25.88;10.10;;;;;;;7.50;46.91;92906.66;5105765;27;19911;-73
2021/01/29 12:33:24;;;;;;;22.08;11.10;;;;;;;7.52;46.93;92923.78;5132171;27;20026;-74
2021/01/29 12:35:54;;;;;;;24.80;11.05;;;;;;;7.34;45.58;92917.75;5133213;27;20031;-77
2021/01/29 12:38:41;;;;;;;23.65;10.52;;;;;;;7.33;46.78;92913.56;5125396;27;20090;-76
2021/01/29 12:41:28;;;;;;;21.70;11.18;;;;;;;7.44;46.93;92909.47;5112134;28;20148;-74